Time;durP1;ratioP1;P1;durP2;ratioP2;P2;SDS_P1;SDS_P2;PMS_P1;PMS_P2;Temp;Humidity;BMP_temperature;BMP_pressure;BME280_temperature;BME280_humidity;BME280_pressure;Samples;Min_cycle;Max_cycle;Signal;HPM_P1;HPM_P2
2022/05/09 00:01:32;;;;;;;0.22;0.10;;;;;;;;;;4179826;28;20110;-39
2022/05/09 00:03:33;;;;;;;0.80;0.20;;;;;;;;;;4179675;28;20053;-39
2022/05/09 00:05:34;;;;;;;0.30;0.20;;;;;;;;;;4179861;28;20488;-39
2022/05/09 00:07:35;;;;;;;0.20;0.10;;;;;;;;;;4179637;28;20073;-36
2022/05/09 00:09:36;;;;;;;0.20;0.10;;;;;;;;;;4179376;28;20126;-40
2022/05/09 00:11:37;;;;;;;0.57;0.15;;;;;;;;;;4179682;28;20404;-39
2022/05/09 00:13:38;;;;;;;0.28;0.20;;;;;;;;;;4179262;28;20045;-40
2022/05/09 00:15:39;;;;;;;0.10;0.10;;;;;;;;;;4179774;28;20045;-41
2022/05/09 00:17:40;;;;;;;0.20;0.10;;;;;;;;;;4179569;28;20048;-41
2022/05/09 00:19:43;;;;;;;0.30;0.20;;;;;;;;;;4179476;28;20044;-36
2022/05/09 00:21:44;;;;;;;0.20;0.20;;;;;;;;;;4179585;28;20415;-40
2022/05/09 00:23:45;;;;;;;0.03;0.00;;;;;;;;;;4211374;28;20130;-40
2022/05/09 00:25:46;;;;;;;0.22;0.20;;;;;;;;;;4179553;28;20082;-39
2022/05/09 00:27:47;;;;;;;0.80;0.20;;;;;;;;;;4179447;28;20057;-39
2022/05/09 00:29:48;;;;;;;0.10;0.10;;;;;;;;;;4179132;28;20174;-36
2022/05/09 00:31:50;;;;;;;0.20;0.20;;;;;;;;;;4179668;28;20045;-40
2022/05/09 00:33:51;;;;;;;0.20;0.10;;;;;;;;;;4179355;28;20053;-40
2022/05/09 00:35:52;;;;;;;0.10;0.10;;;;;;;;;;4179466;28;20398;-40
2022/05/09 00:37:54;;;;;;;0.10;0.10;;;;;;;;;;4179326;28;20052;-37
2022/05/09 00:39:55;;;;;;;0.20;0.20;;;;;;;;;;4179311;28;20049;-38
2022/05/09 00:42:05;;;;;;;0.47;0.17;;;;;;;;;;4179326;28;20056;-39
2022/05/09 00:44:07;;;;;;;;;;;;;;;;;;4179449;28;20550;-41
2022/05/09 00:46:08;;;;;;;0.40;0.10;;;;;;;;;;4179374;28;19970;-39
2022/05/09 00:48:09;;;;;;;0.20;0.20;;;;;;;;;;4179366;28;20091;-40
2022/05/09 00:50:12;;;;;;;0.25;0.10;;;;;;;;;;4179005;28;20488;-40
2022/05/09 00:52:22;;;;;;;0.10;0.10;;;;;;;;;;4179630;28;20045;-36
2022/05/09 00:54:24;;;;;;;0.40;0.20;;;;;;;;;;4179362;28;20480;-39
2022/05/09 00:56:29;;;;;;;0.08;0.08;;;;;;;;;;4177889;28;20045;-39
2022/05/09 00:58:30;;;;;;;0.70;0.30;;;;;;;;;;4179073;28;20056;-40
2022/05/09 01:00:31;;;;;;;0.63;0.28;;;;;;;;;;4177432;28;20083;-40
2022/05/09 01:02:33;;;;;;;0.30;0.10;;;;;;;;;;4179398;28;20194;-39
2022/05/09 01:04:39;;;;;;;0.30;0.10;;;;;;;;;;4179364;28;20064;-42
2022/05/09 01:06:40;;;;;;;0.50;0.20;;;;;;;;;;4194552;28;20090;-37
2022/05/09 01:08:41;;;;;;;1.00;0.10;;;;;;;;;;4178893;28;20550;-39
2022/05/09 01:10:42;;;;;;;0.10;0.10;;;;;;;;;;4179404;28;20080;-39
2022/05/09 01:12:44;;;;;;;0.20;0.20;;;;;;;;;;4179390;28;20117;-39
2022/05/09 01:14:47;;;;;;;0.10;0.03;;;;;;;;;;4178621;28;20107;-38
2022/05/09 01:16:49;;;;;;;0.10;0.10;;;;;;;;;;4179029;28;20382;-41
2022/05/09 01:18:50;;;;;;;0.10;0.10;;;;;;;;;;4178829;28;20106;-38
2022/05/09 01:20:51;;;;;;;0.20;0.15;;;;;;;;;;4179669;28;20044;-40
2022/05/09 01:22:57;;;;;;;0.10;0.10;;;;;;;;;;4182519;28;20046;-35
2022/05/09 01:25:03;;;;;;;0.10;0.10;;;;;;;;;;4182198;28;20044;-38
2022/05/09 01:27:04;;;;;;;0.35;0.20;;;;;;;;;;4182274;28;20045;-41
2022/05/09 01:29:12;;;;;;;0.20;0.10;;;;;;;;;;4181677;28;20108;-40
2022/05/09 01:31:16;;;;;;;0.10;0.10;;;;;;;;;;4182209;28;20391;-39
2022/05/09 01:33:23;;;;;;;0.08;0.08;;;;;;;;;;4180723;28;20414;-39
2022/05/09 01:35:27;;;;;;;0.25;0.10;;;;;;;;;;4182227;28;20045;-39
2022/05/09 01:37:28;;;;;;;0.20;0.15;;;;;;;;;;4182058;28;20132;-40
2022/05/09 01:39:31;;;;;;;0.10;0.10;;;;;;;;;;4182236;28;20110;-39
2022/05/09 01:41:36;;;;;;;0.10;0.10;;;;;;;;;;4181979;28;20480;-39
2022/05/09 01:43:39;;;;;;;0.13;0.10;;;;;;;;;;4180276;28;20394;-40
2022/05/09 01:45:40;;;;;;;0.50;0.10;;;;;;;;;;4180629;28;20044;-37
2022/05/09 01:50:07;;;;;;;0.00;0.00;;;;;;;;;;4181766;28;20114;-39
2022/05/09 01:52:09;;;;;;;0.35;0.10;;;;;;;;;;4181861;28;20048;-38
2022/05/09 01:54:10;;;;;;;0.13;0.10;;;;;;;;;;4181586;28;20086;-39
2022/05/09 01:56:12;;;;;;;0.00;0.00;;;;;;;;;;4180436;28;20088;-38
2022/05/09 01:58:13;;;;;;;0.10;0.10;;;;;;;;;;4181861;28;20313;-40
2022/05/09 02:00:15;;;;;;;0.10;0.10;;;;;;;;;;4179767;28;20124;-39
2022/05/09 02:02:17;;;;;;;0.00;0.00;;;;;;;;;;4182244;28;20057;-40
2022/05/09 02:04:23;;;;;;;0.30;0.20;;;;;;;;;;4181790;28;20049;-38
2022/05/09 02:06:24;;;;;;;0.10;0.10;;;;;;;;;;4180415;28;20089;-41
2022/05/09 02:08:26;;;;;;;0.20;0.10;;;;;;;;;;4181513;28;20230;-38
2022/05/09 02:10:27;;;;;;;0.10;0.10;;;;;;;;;;4181693;28;20481;-41
2022/05/09 02:12:28;;;;;;;0.20;0.10;;;;;;;;;;4181725;28;20496;-39
2022/05/09 02:14:30;;;;;;;0.10;0.10;;;;;;;;;;4181283;28;20099;-38
2022/05/09 02:16:31;;;;;;;0.30;0.10;;;;;;;;;;4181626;28;20435;-36
2022/05/09 02:18:32;;;;;;;0.03;0.00;;;;;;;;;;4181593;28;20037;-39
2022/05/09 02:20:33;;;;;;;0.10;0.10;;;;;;;;;;4181403;28;20071;-41
2022/05/09 02:22:34;;;;;;;0.08;0.00;;;;;;;;;;4181455;28;20131;-37
2022/05/09 02:24:35;;;;;;;0.80;0.10;;;;;;;;;;4181216;28;20381;-40
2022/05/09 02:26:37;;;;;;;0.10;0.10;;;;;;;;;;4181437;28;20091;-39
2022/05/09 02:28:38;;;;;;;0.13;0.10;;;;;;;;;;4180661;28;20103;-40
2022/05/09 02:30:40;;;;;;;0.47;0.10;;;;;;;;;;4181155;28;20067;-39
2022/05/09 02:32:41;;;;;;;0.25;0.13;;;;;;;;;;4181224;28;20091;-37
2022/05/09 02:34:43;;;;;;;0.15;0.10;;;;;;;;;;4181097;28;20131;-39
2022/05/09 02:36:44;;;;;;;0.35;0.32;;;;;;;;;;4181249;28;20102;-40
2022/05/09 02:38:45;;;;;;;0.10;0.10;;;;;;;;;;4181154;28;20041;-40
2022/05/09 02:40:46;;;;;;;0.30;0.20;;;;;;;;;;4181245;28;20480;-39
2022/05/09 02:42:47;;;;;;;0.10;0.10;;;;;;;;;;4180971;28;20053;-40
2022/05/09 02:44:50;;;;;;;0.00;0.00;;;;;;;;;;4180990;28;20126;-40
2022/05/09 02:46:51;;;;;;;0.10;0.10;;;;;;;;;;4180899;28;20052;-39
2022/05/09 02:48:52;;;;;;;0.60;0.10;;;;;;;;;;4180791;28;20071;-37
2022/05/09 02:50:53;;;;;;;0.10;0.10;;;;;;;;;;4179900;28;20045;-39
2022/05/09 02:52:54;;;;;;;1.38;0.15;;;;;;;;;;4180995;28;20468;-38
2022/05/09 02:54:55;;;;;;;0.03;0.03;;;;;;;;;;4180761;28;20041;-39
2022/05/09 02:56:56;;;;;;;0.17;0.00;;;;;;;;;;4180901;28;20455;-40
2022/05/09 02:59:03;;;;;;;0.20;0.10;;;;;;;;;;4180199;28;20443;-40
2022/05/09 03:01:04;;;;;;;0.10;0.10;;;;;;;;;;4212766;28;20052;-40
2022/05/09 03:05:24;;;;;;;0.30;0.20;;;;;;;;;;4180915;28;20045;-40
2022/05/09 03:07:25;;;;;;;0.20;0.20;;;;;;;;;;4181225;28;20056;-40
2022/05/09 03:09:26;;;;;;;0.25;0.10;;;;;;;;;;4180974;28;20414;-40
2022/05/09 03:11:27;;;;;;;0.10;0.10;;;;;;;;;;4180654;28;20057;-37
2022/05/09 03:13:28;;;;;;;0.28;0.10;;;;;;;;;;4180630;28;20114;-39
2022/05/09 03:15:30;;;;;;;0.10;0.10;;;;;;;;;;4180007;28;20045;-39
2022/05/09 03:17:31;;;;;;;0.15;0.10;;;;;;;;;;4180910;28;20095;-39
2022/05/09 03:19:33;;;;;;;0.03;0.03;;;;;;;;;;4180678;28;20054;-35
2022/05/09 03:21:34;;;;;;;0.05;0.05;;;;;;;;;;4180750;28;20060;-39
2022/05/09 03:23:35;;;;;;;0.10;0.10;;;;;;;;;;4180528;28;20490;-40
2022/05/09 03:25:37;;;;;;;0.20;0.10;;;;;;;;;;4212559;28;20059;-40
2022/05/09 03:27:38;;;;;;;0.22;0.20;;;;;;;;;;4180352;28;20182;-36
2022/05/09 03:29:39;;;;;;;0.20;0.20;;;;;;;;;;4180040;28;20052;-40
2022/05/09 03:31:41;;;;;;;0.20;0.10;;;;;;;;;;4180255;28;20300;-38
2022/05/09 03:33:41;;;;;;;0.10;0.00;;;;;;;;;;4180137;28;20481;-36
2022/05/09 03:35:43;;;;;;;0.25;0.10;;;;;;;;;;4180116;28;20091;-38
2022/05/09 03:37:44;;;;;;;0.28;0.10;;;;;;;;;;4180333;28;20041;-39
2022/05/09 03:39:45;;;;;;;0.20;0.10;;;;;;;;;;4180402;28;20051;-38
2022/05/09 03:41:46;;;;;;;0.10;0.10;;;;;;;;;;4180373;28;20136;-38
2022/05/09 03:43:47;;;;;;;0.38;0.17;;;;;;;;;;4179014;28;20060;-37
2022/05/09 03:45:49;;;;;;;0.40;0.17;;;;;;;;;;4179956;28;20682;-40
2022/05/09 03:47:50;;;;;;;0.10;0.10;;;;;;;;;;4180126;28;20106;-39
2022/05/09 03:49:54;;;;;;;0.13;0.10;;;;;;;;;;4179758;28;20401;-39
2022/05/09 03:51:55;;;;;;;0.32;0.03;;;;;;;;;;4180024;28;20049;-38
2022/05/09 03:53:58;;;;;;;0.52;0.10;;;;;;;;;;4179910;28;20091;-39
2022/05/09 03:56:00;;;;;;;0.73;0.20;;;;;;;;;;4180168;28;20447;-41
2022/05/09 03:58:01;;;;;;;0.28;0.10;;;;;;;;;;4179995;28;20106;-38
2022/05/09 04:00:06;;;;;;;0.20;0.15;;;;;;;;;;4179236;28;20485;-38
2022/05/09 04:02:17;;;;;;;0.22;0.10;;;;;;;;;;4179860;28;20492;-39
2022/05/09 04:04:18;;;;;;;0.20;0.15;;;;;;;;;;4179791;28;20060;-39
2022/05/09 04:06:19;;;;;;;0.15;0.10;;;;;;;;;;4179688;28;20049;-40
2022/05/09 04:08:20;;;;;;;0.20;0.17;;;;;;;;;;4179781;28;20052;-40
2022/05/09 04:10:22;;;;;;;0.35;0.20;;;;;;;;;;4179536;28;20484;-39
2022/05/09 04:12:23;;;;;;;0.10;0.10;;;;;;;;;;4179683;28;20056;-39
2022/05/09 04:16:49;;;;;;;0.10;0.10;;;;;;;;;;4179833;28;20045;-38
2022/05/09 04:18:51;;;;;;;0.17;0.10;;;;;;;;;;4179488;28;20103;-40
2022/05/09 04:20:52;;;;;;;0.50;0.20;;;;;;;;;;4179586;28;20048;-39
2022/05/09 04:22:54;;;;;;;0.10;0.00;;;;;;;;;;4178356;28;20103;-39
2022/05/09 04:24:55;;;;;;;0.13;0.10;;;;;;;;;;4179365;28;20106;-40
2022/05/09 04:26:57;;;;;;;0.20;0.10;;;;;;;;;;4179498;28;20052;-39
2022/05/09 04:28:59;;;;;;;0.57;0.10;;;;;;;;;;4178952;28;20094;-40
2022/05/09 04:31:00;;;;;;;0.40;0.15;;;;;;;;;;4179727;28;20354;-37
2022/05/09 04:33:02;;;;;;;0.85;0.10;;;;;;;;;;4179329;28;20084;-39
2022/05/09 04:35:04;;;;;;;0.10;0.10;;;;;;;;;;4179345;28;20041;-40
2022/05/09 04:37:05;;;;;;;0.20;0.10;;;;;;;;;;4179335;28;20382;-37
2022/05/09 04:39:06;;;;;;;0.20;0.17;;;;;;;;;;4211340;28;20048;-37
2022/05/09 04:41:08;;;;;;;0.10;0.10;;;;;;;;;;4179424;28;20099;-37
2022/05/09 04:43:09;;;;;;;0.10;0.10;;;;;;;;;;4179209;28;20049;-38
2022/05/09 04:45:12;;;;;;;0.30;0.10;;;;;;;;;;4178847;28;20059;-39
2022/05/09 04:47:13;;;;;;;0.20;0.20;;;;;;;;;;4179281;28;20041;-40
2022/05/09 04:49:16;;;;;;;0.17;0.10;;;;;;;;;;4177842;28;20713;-38
2022/05/09 04:51:17;;;;;;;0.05;0.05;;;;;;;;;;4167153;28;20096;-39
2022/05/09 04:53:19;;;;;;;0.40;0.20;;;;;;;;;;4160661;28;20049;-37
2022/05/09 04:55:20;;;;;;;0.63;0.10;;;;;;;;;;4160645;28;20054;-38
2022/05/09 04:57:21;;;;;;;0.20;0.13;;;;;;;;;;4163677;28;20049;-39
2022/05/09 04:59:22;;;;;;;0.17;0.10;;;;;;;;;;4167920;28;20550;-40
2022/05/09 05:01:24;;;;;;;0.38;0.20;;;;;;;;;;4180435;28;20057;-38
2022/05/09 05:03:26;;;;;;;0.40;0.20;;;;;;;;;;4180251;28;20401;-38
2022/05/09 05:05:27;;;;;;;0.50;0.15;;;;;;;;;;4180677;28;20056;-40
2022/05/09 05:07:28;;;;;;;0.30;0.10;;;;;;;;;;4180619;28;20061;-38
2022/05/09 05:09:30;;;;;;;0.95;0.20;;;;;;;;;;4180385;28;20114;-38
2022/05/09 05:11:31;;;;;;;0.35;0.30;;;;;;;;;;4182422;28;20555;-36
2022/05/09 05:13:33;;;;;;;0.43;0.20;;;;;;;;;;4179593;28;20096;-38
2022/05/09 05:15:34;;;;;;;0.30;0.30;;;;;;;;;;4179223;28;20048;-39
2022/05/09 05:17:36;;;;;;;0.20;0.20;;;;;;;;;;4176633;28;20116;-37
2022/05/09 05:19:42;;;;;;;0.20;0.10;;;;;;;;;;4176498;28;20419;-40
2022/05/09 05:21:44;;;;;;;0.20;0.20;;;;;;;;;;4180073;28;20061;-38
2022/05/09 05:23:44;;;;;;;0.30;0.20;;;;;;;;;;4179855;28;20048;-38
2022/05/09 05:25:46;;;;;;;0.35;0.20;;;;;;;;;;4179717;28;20411;-40
2022/05/09 05:27:47;;;;;;;0.20;0.10;;;;;;;;;;4179844;28;20547;-40
2022/05/09 05:29:49;;;;;;;0.38;0.10;;;;;;;;;;4179384;28;20098;-39
2022/05/09 05:31:50;;;;;;;0.85;0.20;;;;;;;;;;4180024;28;20056;-38
2022/05/09 05:33:51;;;;;;;0.10;0.10;;;;;;;;;;4174783;28;20048;-39
2022/05/09 05:35:54;;;;;;;0.32;0.20;;;;;;;;;;4181944;28;20484;-39
2022/05/09 05:37:55;;;;;;;1.88;0.40;;;;;;;;;;4186154;28;20063;-33
2022/05/09 05:39:57;;;;;;;0.85;0.10;;;;;;;;;;4178563;28;20049;-40
2022/05/09 05:41:58;;;;;;;0.20;0.20;;;;;;;;;;4169510;28;20057;-40
2022/05/09 05:43:59;;;;;;;0.30;0.10;;;;;;;;;;4177033;28;20059;-39
2022/05/09 05:46:00;;;;;;;0.43;0.20;;;;;;;;;;4176493;28;20353;-40
2022/05/09 05:48:01;;;;;;;0.20;0.20;;;;;;;;;;4181752;28;20443;-39
2022/05/09 05:50:03;;;;;;;0.68;0.20;;;;;;;;;;4181003;28;20055;-40
2022/05/09 05:52:04;;;;;;;0.55;0.22;;;;;;;;;;4178676;28;20449;-40
2022/05/09 05:54:05;;;;;;;0.65;0.15;;;;;;;;;;4174261;28;20049;-39
2022/05/09 05:56:07;;;;;;;1.23;0.40;;;;;;;;;;4174613;28;21651;-39
2022/05/09 05:58:08;;;;;;;0.47;0.30;;;;;;;;;;4175902;28;20101;-41
2022/05/09 06:00:11;;;;;;;0.43;0.25;;;;;;;;;;4177968;28;20102;-37
2022/05/09 06:02:18;;;;;;;0.22;0.20;;;;;;;;;;4176971;28;20056;-40
2022/05/09 06:04:20;;;;;;;0.52;0.20;;;;;;;;;;4172783;28;20101;-41
2022/05/09 06:06:21;;;;;;;0.80;0.50;;;;;;;;;;4165736;28;20041;-39
2022/05/09 06:08:22;;;;;;;1.15;0.32;;;;;;;;;;4163830;28;20056;-41
2022/05/09 06:10:23;;;;;;;1.73;0.30;;;;;;;;;;4169372;28;20048;-40
2022/05/09 06:12:25;;;;;;;0.98;0.30;;;;;;;;;;4149333;28;20576;-38
2022/05/09 06:14:26;;;;;;;2.17;0.20;;;;;;;;;;4166080;28;20140;-40
2022/05/09 06:16:27;;;;;;;0.25;0.20;;;;;;;;;;4158902;28;20159;-40
2022/05/09 06:18:28;;;;;;;0.90;0.50;;;;;;;;;;4160813;28;20575;-38
2022/05/09 06:20:31;;;;;;;1.02;0.50;;;;;;;;;;4158802;28;20056;-40
2022/05/09 06:22:32;;;;;;;3.42;0.65;;;;;;;;;;4164586;28;20550;-41
2022/05/09 06:24:34;;;;;;;1.50;0.68;;;;;;;;;;4161582;28;20151;-39
2022/05/09 06:26:35;;;;;;;1.05;0.70;;;;;;;;;;4171521;28;20080;-40
2022/05/09 06:28:36;;;;;;;1.33;0.28;;;;;;;;;;4164638;28;20048;-40
2022/05/09 06:30:38;;;;;;;0.50;0.30;;;;;;;;;;4154237;28;20567;-42
2022/05/09 06:32:39;;;;;;;0.57;0.30;;;;;;;;;;4155072;28;20249;-39
2022/05/09 06:34:40;;;;;;;1.15;0.55;;;;;;;;;;4166884;28;20541;-39
2022/05/09 06:36:42;;;;;;;0.93;0.22;;;;;;;;;;4163303;28;20075;-42
2022/05/09 06:38:42;;;;;;;1.88;0.30;;;;;;;;;;4169047;28;20397;-40
2022/05/09 06:40:44;;;;;;;2.72;0.73;;;;;;;;;;4160426;28;20106;-42
2022/05/09 06:42:46;;;;;;;1.10;0.32;;;;;;;;;;4166049;28;20076;-39
2022/05/09 06:44:48;;;;;;;1.33;0.32;;;;;;;;;;4164669;28;20059;-41
2022/05/09 06:46:48;;;;;;;1.25;0.50;;;;;;;;;;4169806;28;20505;-41
2022/05/09 06:48:49;;;;;;;1.10;0.30;;;;;;;;;;4173215;28;20130;-40
2022/05/09 06:50:52;;;;;;;0.45;0.30;;;;;;;;;;4169601;28;21464;-40
2022/05/09 06:52:53;;;;;;;0.93;0.22;;;;;;;;;;4148445;28;21051;-44
2022/05/09 06:54:54;;;;;;;0.43;0.28;;;;;;;;;;4140950;28;20083;-42
2022/05/09 06:56:55;;;;;;;1.55;0.40;;;;;;;;;;4137864;28;20807;-42
2022/05/09 06:58:56;;;;;;;1.52;0.30;;;;;;;;;;4174503;28;20627;-41
2022/05/09 07:00:58;;;;;;;0.43;0.20;;;;;;;;;;4144779;28;20052;-43
2022/05/09 07:02:58;;;;;;;1.83;0.40;;;;;;;;;;4138720;28;20186;-43
2022/05/09 07:05:02;;;;;;;1.35;0.50;;;;;;;;;;4146874;28;20045;-39
2022/05/09 07:07:04;;;;;;;1.55;0.40;;;;;;;;;;4146619;28;20138;-43
2022/05/09 07:09:09;;;;;;;2.40;0.30;;;;;;;;;;4158779;28;20805;-39
2022/05/09 07:11:11;;;;;;;3.70;0.40;;;;;;;;;;4153534;28;20130;-40
2022/05/09 07:13:12;;;;;;;1.25;0.45;;;;;;;;;;4145030;28;21361;-40
2022/05/09 07:15:15;;;;;;;3.15;0.40;;;;;;;;;;4143564;28;20173;-40
2022/05/09 07:17:16;;;;;;;3.47;0.63;;;;;;;;;;4150085;28;20408;-40
2022/05/09 07:19:17;;;;;;;4.25;0.60;;;;;;;;;;4155000;28;20071;-40
2022/05/09 07:21:19;;;;;;;2.35;0.70;;;;;;;;;;4147598;28;20459;-40
2022/05/09 07:23:20;;;;;;;0.80;0.40;;;;;;;;;;4145002;28;20048;-40
2022/05/09 07:25:22;;;;;;;3.80;0.70;;;;;;;;;;4150117;28;21022;-41
2022/05/09 07:27:25;;;;;;;3.85;0.88;;;;;;;;;;4148910;28;20072;-40
2022/05/09 07:29:26;;;;;;;1.10;0.65;;;;;;;;;;4154754;28;20045;-41
2022/05/09 07:31:27;;;;;;;3.70;0.55;;;;;;;;;;4172146;28;20773;-40
2022/05/09 07:33:28;;;;;;;3.45;0.50;;;;;;;;;;4148426;28;20167;-42
2022/05/09 07:35:29;;;;;;;2.55;0.75;;;;;;;;;;4152868;28;20134;-42
2022/05/09 07:37:30;;;;;;;2.05;0.30;;;;;;;;;;4170566;28;20586;-40
2022/05/09 07:39:31;;;;;;;0.88;0.45;;;;;;;;;;4152548;28;20149;-41
2022/05/09 07:41:33;;;;;;;3.28;0.52;;;;;;;;;;4150027;28;21015;-40
2022/05/09 07:43:34;;;;;;;1.30;0.50;;;;;;;;;;4155569;28;20375;-42
2022/05/09 07:45:35;;;;;;;0.82;0.20;;;;;;;;;;4156451;28;20590;-41
2022/05/09 07:47:38;;;;;;;2.20;0.40;;;;;;;;;;4157215;28;21103;-41
2022/05/09 07:49:39;;;;;;;3.13;0.30;;;;;;;;;;4153854;28;20056;-40
2022/05/09 07:51:40;;;;;;;5.13;0.38;;;;;;;;;;4154110;28;20049;-40
2022/05/09 07:53:41;;;;;;;0.68;0.25;;;;;;;;;;4147086;28;20108;-41
2022/05/09 07:55:42;;;;;;;1.38;0.40;;;;;;;;;;4142721;28;20062;-42
2022/05/09 07:57:47;;;;;;;1.10;0.40;;;;;;;;;;4155361;28;20674;-42
2022/05/09 07:59:48;;;;;;;2.15;0.55;;;;;;;;;;4141041;28;20729;-42
2022/05/09 08:01:50;;;;;;;1.67;0.20;;;;;;;;;;4169396;28;20519;-39
2022/05/09 08:03:50;;;;;;;0.40;0.22;;;;;;;;;;4138792;28;20053;-41
2022/05/09 08:05:56;;;;;;;1.10;0.43;;;;;;;;;;4148282;28;20818;-42
2022/05/09 08:07:58;;;;;;;0.85;0.40;;;;;;;;;;4149674;28;20415;-42
2022/05/09 08:09:59;;;;;;;1.05;0.40;;;;;;;;;;4144263;28;20064;-42
2022/05/09 08:12:00;;;;;;;1.23;0.40;;;;;;;;;;4149348;28;20053;-41
2022/05/09 08:14:01;;;;;;;1.38;0.30;;;;;;;;;;4171786;28;20118;-42
2022/05/09 08:16:03;;;;;;;4.50;0.40;;;;;;;;;;4140676;28;20436;-42
2022/05/09 08:18:05;;;;;;;3.47;0.22;;;;;;;;;;4159942;28;20043;-42
2022/05/09 08:20:06;;;;;;;1.95;0.35;;;;;;;;;;4140011;28;20052;-41
2022/05/09 08:22:10;;;;;;;2.50;0.30;;;;;;;;;;4144027;28;20706;-40
2022/05/09 08:24:11;;;;;;;3.00;0.50;;;;;;;;;;4150440;28;20300;-41
2022/05/09 08:26:13;;;;;;;0.80;0.30;;;;;;;;;;4151824;28;20500;-41
2022/05/09 08:28:15;;;;;;;4.05;0.55;;;;;;;;;;4150169;28;20064;-42
2022/05/09 08:30:18;;;;;;;1.60;0.43;;;;;;;;;;4145557;28;20463;-41
2022/05/09 08:32:18;;;;;;;0.50;0.40;;;;;;;;;;4143086;28;20106;-42
2022/05/09 08:34:20;;;;;;;0.55;0.20;;;;;;;;;;4149683;28;20052;-42
2022/05/09 08:38:40;;;;;;;;;;;;;;;;;;4155882;28;20053;-42
2022/05/09 08:40:54;;;;;;;0.43;0.32;;;;;;;;;;4149013;28;19924;-42
2022/05/09 08:43:05;;;;;;;0.65;0.20;;;;;;;;;;4159960;28;20057;-42
2022/05/09 08:45:21;;;;;;;2.58;0.35;;;;;;;;;;4151226;28;22077;-42
2022/05/09 08:47:36;;;;;;;2.63;0.65;;;;;;;;;;4157749;28;20061;-42
2022/05/09 08:49:50;;;;;;;2.40;0.35;;;;;;;;;;4149640;28;20049;-42
2022/05/09 08:51:56;;;;;;;2.22;0.73;;;;;;;;;;4152706;28;20131;-43
2022/05/09 08:54:00;;;;;;;2.97;0.30;;;;;;;;;;4151397;28;20162;-42
2022/05/09 08:56:01;;;;;;;4.90;0.35;;;;;;;;;;4154662;28;20049;-41
2022/05/09 08:58:05;;;;;;;4.95;0.40;;;;;;;;;;4152554;28;20045;-42
2022/05/09 09:00:11;;;;;;;0.40;0.30;;;;;;;;;;4132803;28;20134;-41
2022/05/09 09:02:19;;;;;;;0.95;0.40;;;;;;;;;;4150684;28;20516;-42
2022/05/09 09:04:22;;;;;;;0.60;0.30;;;;;;;;;;4156362;28;20127;-42
2022/05/09 09:06:23;;;;;;;0.52;0.28;;;;;;;;;;4157951;28;20053;-41
2022/05/09 09:08:29;;;;;;;2.17;0.25;;;;;;;;;;4158190;28;20055;-40
2022/05/09 09:10:44;;;;;;;1.48;0.35;;;;;;;;;;4157767;28;20045;-41
2022/05/09 09:12:48;;;;;;;0.40;0.30;;;;;;;;;;4147932;28;20089;-39
2022/05/09 09:14:55;;;;;;;1.70;0.30;;;;;;;;;;4150260;28;20052;-40
2022/05/09 09:17:03;;;;;;;0.85;0.35;;;;;;;;;;4149479;28;20334;-44
2022/05/09 09:19:08;;;;;;;1.45;0.47;;;;;;;;;;4146781;28;20041;-42
2022/05/09 09:21:15;;;;;;;1.30;0.20;;;;;;;;;;4151000;28;20049;-41
2022/05/09 09:23:16;;;;;;;0.85;0.35;;;;;;;;;;4147150;28;20057;-41
2022/05/09 09:25:35;;;;;;;1.98;0.28;;;;;;;;;;4158002;28;20063;-41
2022/05/09 09:27:45;;;;;;;1.80;0.43;;;;;;;;;;4155430;28;20122;-41
2022/05/09 09:30:10;;;;;;;0.30;0.20;;;;;;;;;;4159980;28;20107;-41
2022/05/09 09:32:15;;;;;;;0.30;0.20;;;;;;;;;;4159903;28;20130;-41
2022/05/09 09:34:15;;;;;;;0.70;0.20;;;;;;;;;;4157989;28;20093;-41
2022/05/09 09:36:17;;;;;;;2.03;0.40;;;;;;;;;;4150318;28;20052;-41
2022/05/09 09:38:45;;;;;;;0.68;0.30;;;;;;;;;;4152621;28;20055;-42
2022/05/09 09:40:46;;;;;;;0.95;0.68;;;;;;;;;;4153590;28;20060;-40
2022/05/09 09:42:51;;;;;;;0.82;0.30;;;;;;;;;;4162577;28;20053;-40
2022/05/09 09:44:54;;;;;;;1.95;0.32;;;;;;;;;;4169540;28;20106;-41
2022/05/09 09:47:04;;;;;;;0.95;0.60;;;;;;;;;;4161504;28;20135;-41
2022/05/09 09:49:07;;;;;;;0.30;0.13;;;;;;;;;;4167637;28;20090;-42
2022/05/09 09:51:12;;;;;;;0.75;0.30;;;;;;;;;;4156353;28;20711;-41
2022/05/09 09:53:27;;;;;;;0.77;0.50;;;;;;;;;;4170431;28;20053;-41
2022/05/09 09:55:30;;;;;;;0.65;0.20;;;;;;;;;;4168865;28;20052;-42
2022/05/09 09:57:35;;;;;;;0.60;0.25;;;;;;;;;;4170655;28;20049;-42
2022/05/09 09:59:36;;;;;;;2.80;0.50;;;;;;;;;;4166439;28;20129;-42
2022/05/09 10:01:37;;;;;;;0.60;0.30;;;;;;;;;;4168005;28;20049;-42
2022/05/09 10:03:41;;;;;;;0.63;0.30;;;;;;;;;;4172120;28;20068;-44
2022/05/09 10:05:44;;;;;;;0.32;0.20;;;;;;;;;;4171609;28;20654;-41
2022/05/09 10:07:47;;;;;;;0.35;0.20;;;;;;;;;;4160987;28;20126;-41
2022/05/09 10:10:07;;;;;;;0.90;0.40;;;;;;;;;;4166359;28;20060;-42
2022/05/09 10:12:08;;;;;;;;;;;;;;;;;;4169622;28;20056;-43
2022/05/09 10:14:09;;;;;;;0.82;0.30;;;;;;;;;;4158878;28;20623;-43
2022/05/09 10:16:30;;;;;;;1.00;0.35;;;;;;;;;;4164243;28;20049;-43
2022/05/09 10:18:32;;;;;;;0.30;0.13;;;;;;;;;;4167797;28;20053;-43
2022/05/09 10:20:39;;;;;;;0.55;0.30;;;;;;;;;;4169922;28;20082;-43
2022/05/09 10:25:05;;;;;;;0.93;0.50;;;;;;;;;;4176437;28;20106;-42
2022/05/09 10:27:09;;;;;;;0.75;0.25;;;;;;;;;;4177279;28;20045;-43
2022/05/09 10:29:15;;;;;;;1.73;0.30;;;;;;;;;;4174001;28;20044;-43
2022/05/09 10:31:20;;;;;;;0.88;0.30;;;;;;;;;;4178035;28;20061;-43
2022/05/09 10:33:21;;;;;;;0.75;0.30;;;;;;;;;;4167144;28;20156;-44
2022/05/09 10:35:24;;;;;;;1.00;0.30;;;;;;;;;;4172981;28;20048;-42
2022/05/09 10:37:27;;;;;;;0.32;0.20;;;;;;;;;;4172554;28;20051;-43
2022/05/09 10:39:38;;;;;;;1.52;0.30;;;;;;;;;;4173589;28;20104;-43
2022/05/09 10:41:40;;;;;;;2.83;0.40;;;;;;;;;;4177091;28;20554;-43
2022/05/09 10:43:52;;;;;;;0.60;0.20;;;;;;;;;;4172733;28;21625;-40
2022/05/09 10:45:53;;;;;;;0.45;0.28;;;;;;;;;;4170222;28;20071;-42
2022/05/09 10:47:57;;;;;;;0.80;0.40;;;;;;;;;;4175001;28;20425;-43
2022/05/09 10:50:04;;;;;;;0.40;0.40;;;;;;;;;;4175052;28;20049;-43
2022/05/09 10:52:08;;;;;;;;;;;;;;;;;;4160403;28;20570;-43
2022/05/09 10:54:15;;;;;;;0.47;0.20;;;;;;;;;;4163479;28;20006;-42
2022/05/09 10:56:25;;;;;;;1.10;0.30;;;;;;;;;;4171465;28;21046;-44
2022/05/09 10:58:26;;;;;;;;;;;;;;;;;;4159372;28;20400;-44
2022/05/09 11:00:27;;;;;;;0.20;0.20;;;;;;;;;;4166082;28;19975;-44
2022/05/09 11:02:33;;;;;;;0.25;0.10;;;;;;;;;;4167878;28;20083;-44
2022/05/09 11:04:35;;;;;;;1.20;0.50;;;;;;;;;;4160977;28;20093;-43
2022/05/09 11:07:02;;;;;;;1.77;0.32;;;;;;;;;;4159779;28;20052;-42
2022/05/09 11:09:24;;;;;;;0.60;0.25;;;;;;;;;;4173573;28;20137;-43
2022/05/09 11:11:32;;;;;;;0.70;0.20;;;;;;;;;;4162398;28;20567;-40
2022/05/09 11:13:44;;;;;;;1.08;0.40;;;;;;;;;;4168151;28;20053;-43
2022/05/09 11:15:50;;;;;;;0.63;0.25;;;;;;;;;;4169634;28;21417;-44
2022/05/09 11:18:10;;;;;;;0.57;0.20;;;;;;;;;;4166131;28;20493;-43
2022/05/09 11:20:22;;;;;;;2.05;0.30;;;;;;;;;;4170279;28;20102;-43
2022/05/09 11:22:32;;;;;;;0.43;0.30;;;;;;;;;;4169466;28;20094;-41
2022/05/09 11:24:39;;;;;;;0.50;0.30;;;;;;;;;;4169011;28;20109;-41
2022/05/09 11:26:51;;;;;;;0.68;0.22;;;;;;;;;;4164437;28;20492;-43
2022/05/09 11:29:01;;;;;;;2.30;0.40;;;;;;;;;;4166686;28;20202;-42
2022/05/09 11:31:11;;;;;;;0.90;0.40;;;;;;;;;;4171014;28;20052;-43
2022/05/09 11:33:28;;;;;;;2.80;0.43;;;;;;;;;;4179156;28;20052;-41
2022/05/09 11:35:33;;;;;;;0.40;0.20;;;;;;;;;;4171549;28;20106;-42
2022/05/09 11:37:53;;;;;;;0.40;0.30;;;;;;;;;;4179988;28;20094;-43
2022/05/09 11:40:06;;;;;;;0.95;0.30;;;;;;;;;;4169223;28;20099;-42
2022/05/09 11:44:52;;;;;;;0.33;0.30;;;;;;;;;;4172796;28;20048;-41
2022/05/09 11:47:02;;;;;;;0.38;0.20;;;;;;;;;;4174047;28;21504;-42
2022/05/09 11:49:11;;;;;;;0.35;0.20;;;;;;;;;;4162162;28;20542;-42
2022/05/09 11:51:12;;;;;;;0.40;0.30;;;;;;;;;;4170292;28;20044;-42
2022/05/09 11:53:17;;;;;;;0.50;0.30;;;;;;;;;;4168225;28;20106;-42
2022/05/09 11:55:19;;;;;;;1.38;0.38;;;;;;;;;;4169693;28;20044;-42
2022/05/09 11:57:29;;;;;;;0.63;0.28;;;;;;;;;;4160332;28;20169;-42
2022/05/09 11:59:32;;;;;;;1.42;0.40;;;;;;;;;;4165308;28;20044;-42
2022/05/09 12:01:53;;;;;;;1.58;0.50;;;;;;;;;;4164520;28;20053;-42
2022/05/09 12:03:54;;;;;;;0.47;0.30;;;;;;;;;;4165072;28;20076;-42
2022/05/09 12:06:02;;;;;;;0.40;0.30;;;;;;;;;;4162132;28;20716;-43
2022/05/09 12:08:03;;;;;;;0.85;0.20;;;;;;;;;;4180233;28;20101;-43
2022/05/09 12:10:16;;;;;;;0.75;0.30;;;;;;;;;;4164835;28;20107;-43
2022/05/09 12:12:37;;;;;;;1.17;0.38;;;;;;;;;;4168356;28;20049;-43
2022/05/09 12:14:40;;;;;;;0.40;0.30;;;;;;;;;;4164665;28;20158;-42
2022/05/09 12:16:42;;;;;;;0.40;0.20;;;;;;;;;;4170718;28;20463;-42
2022/05/09 12:18:52;;;;;;;0.45;0.30;;;;;;;;;;4167175;28;20213;-43
2022/05/09 12:20:53;;;;;;;0.43;0.20;;;;;;;;;;4166243;28;20059;-41
2022/05/09 12:22:56;;;;;;;0.52;0.32;;;;;;;;;;4162351;28;20707;-42
2022/05/09 12:24:57;;;;;;;0.22;0.22;;;;;;;;;;4166608;28;20052;-43
2022/05/09 12:27:00;;;;;;;0.25;0.20;;;;;;;;;;4164390;28;20075;-42
2022/05/09 12:29:11;;;;;;;0.50;0.30;;;;;;;;;;4164904;28;20144;-42
2022/05/09 12:31:32;;;;;;;0.65;0.30;;;;;;;;;;4168036;28;20056;-43
2022/05/09 12:33:39;;;;;;;1.65;0.40;;;;;;;;;;4165765;28;20106;-42
2022/05/09 12:35:42;;;;;;;1.42;0.25;;;;;;;;;;4164022;28;20095;-42
2022/05/09 12:37:44;;;;;;;1.98;0.20;;;;;;;;;;4169461;28;20049;-42